createdAt,value
2022-09-23T00:06:52.023Z,78.03
2022-09-23T00:23:40.790Z,78.40
2022-09-23T00:40:28.712Z,79.05
2022-09-23T00:57:20.268Z,79.56
2022-09-23T01:14:26.527Z,79.82
2022-09-23T01:31:21.142Z,80.42
2022-09-23T01:48:15.967Z,80.45
2022-09-23T02:05:08.712Z,80.56
2022-09-23T02:22:01.357Z,80.74
2022-09-23T02:38:54.422Z,81.13
2022-09-23T02:55:43.100Z,81.49
2022-09-23T03:12:37.120Z,81.53
2022-09-23T03:29:25.418Z,81.73
2022-09-23T03:46:15.462Z,81.96
2022-09-23T04:03:05.310Z,81.98
2022-09-23T04:19:56.426Z,82.09
2022-09-23T04:36:44.797Z,82.20
2022-09-23T04:53:32.823Z,82.57
2022-09-23T05:10:21.190Z,82.63
2022-09-23T05:27:09.786Z,82.59
2022-09-23T05:44:00.075Z,82.79
2022-09-23T06:00:49.604Z,82.93
2022-09-23T06:17:37.900Z,83.09
2022-09-23T06:34:27.328Z,83.07
2022-09-23T06:51:19.512Z,82.73
2022-09-23T07:08:10.610Z,82.33
2022-09-23T07:24:58.429Z,81.81
2022-09-23T07:41:46.548Z,80.84
2022-09-23T07:58:35.329Z,79.84
2022-09-23T08:15:23.551Z,79.35
2022-09-23T08:32:12.462Z,78.32
2022-09-23T08:49:02.661Z,77.52
2022-09-23T09:05:54.382Z,77.24
2022-09-23T09:22:51.297Z,75.37
2022-09-23T09:39:39.680Z,73.58
2022-09-23T09:56:35.858Z,71.51
2022-09-23T10:13:27.507Z,68.63
2022-09-23T10:30:25.549Z,67.24
2022-09-23T10:47:23.254Z,65.86
2022-09-23T11:04:53.034Z,64.65
2022-09-23T11:22:01.473Z,64.11
2022-09-23T11:38:53.396Z,63.48
2022-09-23T11:55:55.939Z,62.06
2022-09-23T12:12:53.152Z,61.47
2022-09-23T12:29:43.246Z,60.54
2022-09-23T12:46:31.558Z,59.83
2022-09-23T13:03:37.274Z,59.28
2022-09-23T13:20:40.947Z,58.12
2022-09-23T13:37:46.531Z,57.76
2022-09-23T13:54:37.700Z,58.11
2022-09-23T14:11:33.356Z,57.93
2022-09-23T14:28:25.684Z,57.88
2022-09-23T14:45:18.601Z,58.11
2022-09-23T15:02:42.843Z,57.88
2022-09-23T15:19:32.468Z,57.85
2022-09-23T15:36:23.128Z,58.17
2022-09-23T15:53:12.610Z,58.50
2022-09-23T16:10:00.606Z,59.18
2022-09-23T16:26:49.589Z,59.81
2022-09-23T16:43:41.270Z,61.17
2022-09-23T17:00:42.896Z,62.26
2022-09-23T17:17:31.400Z,63.90
2022-09-23T17:34:20.152Z,65.61
2022-09-23T17:51:11.240Z,66.85
2022-09-23T18:08:01.872Z,67.15
2022-09-23T18:24:53.234Z,67.23
2022-09-23T18:41:41.409Z,66.01
2022-09-23T18:58:29.952Z,65.53
2022-09-23T19:15:17.940Z,65.11
2022-09-23T19:32:06.944Z,65.05
2022-09-23T19:48:54.981Z,65.59
2022-09-23T20:05:43.272Z,66.07
2022-09-23T20:22:33.661Z,66.43
2022-09-23T20:39:21.761Z,67.79
2022-09-23T20:56:10.268Z,69.56
2022-09-23T21:12:58.440Z,70.97
2022-09-23T21:29:46.531Z,72.24
2022-09-23T21:46:35.521Z,73.15
2022-09-23T22:03:23.720Z,73.90
2022-09-23T22:20:12.796Z,74.97
2022-09-23T22:37:01.659Z,75.88
2022-09-23T22:53:49.768Z,76.51
2022-09-23T23:10:39.657Z,76.89
2022-09-23T23:27:28.066Z,77.35
2022-09-23T23:44:16.375Z,77.61
